sensor_id;sensor_type;location;lat;lon;timestamp;P1;durP1;ratioP1;P2;durP2;ratioP2
18146;SDS011;9199;48.832;9.182;2023-08-06T00:00:12;8.93;;;6.13;;
18146;SDS011;9199;48.832;9.182;2023-08-06T00:02:39;9.43;;;6.25;;
18146;SDS011;9199;48.832;9.182;2023-08-06T00:05:06;10.07;;;6.57;;
18146;SDS011;9199;48.832;9.182;2023-08-06T00:07:33;10.17;;;6.77;;
18146;SDS011;9199;48.832;9.182;2023-08-06T00:10:00;9.98;;;7.10;;
18146;SDS011;9199;48.832;9.182;2023-08-06T00:12:28;9.10;;;6.80;;
18146;SDS011;9199;48.832;9.182;2023-08-06T00:14:55;10.50;;;7.88;;
18146;SDS011;9199;48.832;9.182;2023-08-06T00:17:21;11.68;;;7.93;;
18146;SDS011;9199;48.832;9.182;2023-08-06T00:19:48;10.73;;;8.17;;
18146;SDS011;9199;48.832;9.182;2023-08-06T00:22:15;12.40;;;7.80;;
18146;SDS011;9199;48.832;9.182;2023-08-06T00:24:41;11.35;;;7.82;;
18146;SDS011;9199;48.832;9.182;2023-08-06T00:27:08;11.80;;;8.30;;
18146;SDS011;9199;48.832;9.182;2023-08-06T00:29:36;12.07;;;7.57;;
18146;SDS011;9199;48.832;9.182;2023-08-06T00:32:03;11.40;;;7.50;;
18146;SDS011;9199;48.832;9.182;2023-08-06T00:34:30;11.75;;;7.40;;
18146;SDS011;9199;48.832;9.182;2023-08-06T00:36:56;11.18;;;7.43;;
18146;SDS011;9199;48.832;9.182;2023-08-06T00:39:23;11.82;;;7.55;;
18146;SDS011;9199;48.832;9.182;2023-08-06T00:41:50;12.25;;;7.47;;
18146;SDS011;9199;48.832;9.182;2023-08-06T00:44:16;12.03;;;8.00;;
18146;SDS011;9199;48.832;9.182;2023-08-06T00:46:44;9.15;;;6.82;;
18146;SDS011;9199;48.832;9.182;2023-08-06T00:49:11;9.48;;;6.10;;
18146;SDS011;9199;48.832;9.182;2023-08-06T00:51:38;7.72;;;5.50;;
18146;SDS011;9199;48.832;9.182;2023-08-06T00:54:05;8.20;;;4.88;;
18146;SDS011;9199;48.832;9.182;2023-08-06T00:56:32;8.37;;;4.73;;
18146;SDS011;9199;48.832;9.182;2023-08-06T00:59:01;7.97;;;4.78;;
18146;SDS011;9199;48.832;9.182;2023-08-06T01:01:28;8.07;;;4.75;;
18146;SDS011;9199;48.832;9.182;2023-08-06T01:03:56;7.20;;;4.40;;
18146;SDS011;9199;48.832;9.182;2023-08-06T01:06:24;7.35;;;4.78;;
18146;SDS011;9199;48.832;9.182;2023-08-06T01:09:02;7.13;;;4.53;;
18146;SDS011;9199;48.832;9.182;2023-08-06T01:11:40;7.55;;;4.55;;
18146;SDS011;9199;48.832;9.182;2023-08-06T01:14:15;8.75;;;5.00;;
18146;SDS011;9199;48.832;9.182;2023-08-06T01:16:47;8.90;;;4.40;;
18146;SDS011;9199;48.832;9.182;2023-08-06T01:19:17;6.95;;;4.63;;
18146;SDS011;9199;48.832;9.182;2023-08-06T01:21:46;7.20;;;4.67;;
18146;SDS011;9199;48.832;9.182;2023-08-06T01:24:12;7.63;;;5.13;;
18146;SDS011;9199;48.832;9.182;2023-08-06T01:26:42;8.07;;;4.85;;
18146;SDS011;9199;48.832;9.182;2023-08-06T01:29:15;6.53;;;4.47;;
18146;SDS011;9199;48.832;9.182;2023-08-06T01:31:45;6.50;;;4.72;;
18146;SDS011;9199;48.832;9.182;2023-08-06T01:34:17;8.20;;;4.60;;
18146;SDS011;9199;48.832;9.182;2023-08-06T01:36:48;6.70;;;4.30;;
18146;SDS011;9199;48.832;9.182;2023-08-06T01:39:15;6.60;;;3.85;;
18146;SDS011;9199;48.832;9.182;2023-08-06T01:41:45;5.80;;;3.78;;
18146;SDS011;9199;48.832;9.182;2023-08-06T01:44:12;5.95;;;3.75;;
18146;SDS011;9199;48.832;9.182;2023-08-06T01:46:39;6.87;;;4.03;;
18146;SDS011;9199;48.832;9.182;2023-08-06T01:49:06;7.10;;;3.92;;
18146;SDS011;9199;48.832;9.182;2023-08-06T01:51:32;7.25;;;3.97;;
18146;SDS011;9199;48.832;9.182;2023-08-06T01:54:00;6.07;;;3.80;;
18146;SDS011;9199;48.832;9.182;2023-08-06T01:56:27;6.32;;;3.90;;
18146;SDS011;9199;48.832;9.182;2023-08-06T01:58:54;6.70;;;4.10;;
18146;SDS011;9199;48.832;9.182;2023-08-06T02:01:20;6.30;;;3.65;;
18146;SDS011;9199;48.832;9.182;2023-08-06T02:03:47;6.20;;;3.60;;
18146;SDS011;9199;48.832;9.182;2023-08-06T02:06:14;5.80;;;3.50;;
18146;SDS011;9199;48.832;9.182;2023-08-06T02:08:40;5.97;;;3.08;;
18146;SDS011;9199;48.832;9.182;2023-08-06T02:11:09;5.10;;;3.00;;
18146;SDS011;9199;48.832;9.182;2023-08-06T02:13:35;5.70;;;3.35;;
18146;SDS011;9199;48.832;9.182;2023-08-06T02:16:02;6.30;;;3.40;;
18146;SDS011;9199;48.832;9.182;2023-08-06T02:18:29;5.47;;;2.95;;
18146;SDS011;9199;48.832;9.182;2023-08-06T02:20:56;5.75;;;3.30;;
18146;SDS011;9199;48.832;9.182;2023-08-06T02:23:23;7.33;;;3.10;;
18146;SDS011;9199;48.832;9.182;2023-08-06T02:25:56;6.20;;;3.00;;
18146;SDS011;9199;48.832;9.182;2023-08-06T02:28:25;6.68;;;3.20;;
18146;SDS011;9199;48.832;9.182;2023-08-06T02:30:51;5.78;;;3.70;;
18146;SDS011;9199;48.832;9.182;2023-08-06T02:33:18;5.50;;;3.40;;
18146;SDS011;9199;48.832;9.182;2023-08-06T02:35:45;6.57;;;3.60;;
18146;SDS011;9199;48.832;9.182;2023-08-06T02:38:12;7.00;;;3.22;;
18146;SDS011;9199;48.832;9.182;2023-08-06T02:40:42;6.32;;;3.22;;
18146;SDS011;9199;48.832;9.182;2023-08-06T02:43:10;6.65;;;3.08;;
18146;SDS011;9199;48.832;9.182;2023-08-06T02:45:38;6.40;;;3.40;;
18146;SDS011;9199;48.832;9.182;2023-08-06T02:48:05;8.60;;;3.33;;
18146;SDS011;9199;48.832;9.182;2023-08-06T02:50:37;6.22;;;3.40;;
18146;SDS011;9199;48.832;9.182;2023-08-06T02:53:04;5.65;;;2.95;;
18146;SDS011;9199;48.832;9.182;2023-08-06T02:55:31;6.25;;;3.10;;
18146;SDS011;9199;48.832;9.182;2023-08-06T02:57:59;4.75;;;2.80;;
18146;SDS011;9199;48.832;9.182;2023-08-06T03:00:26;5.07;;;2.70;;
18146;SDS011;9199;48.832;9.182;2023-08-06T03:02:54;8.07;;;2.83;;
18146;SDS011;9199;48.832;9.182;2023-08-06T03:05:21;6.05;;;3.03;;
18146;SDS011;9199;48.832;9.182;2023-08-06T03:07:48;4.93;;;2.80;;
18146;SDS011;9199;48.832;9.182;2023-08-06T03:10:14;5.85;;;2.72;;
18146;SDS011;9199;48.832;9.182;2023-08-06T03:12:41;7.17;;;2.60;;
18146;SDS011;9199;48.832;9.182;2023-08-06T03:15:09;4.65;;;2.70;;
18146;SDS011;9199;48.832;9.182;2023-08-06T03:17:36;6.80;;;2.53;;
18146;SDS011;9199;48.832;9.182;2023-08-06T03:20:04;6.07;;;2.80;;
18146;SDS011;9199;48.832;9.182;2023-08-06T03:22:32;4.55;;;2.30;;
18146;SDS011;9199;48.832;9.182;2023-08-06T03:24:59;5.10;;;2.20;;
18146;SDS011;9199;48.832;9.182;2023-08-06T03:27:25;4.78;;;1.98;;
18146;SDS011;9199;48.832;9.182;2023-08-06T03:29:52;5.10;;;2.33;;
18146;SDS011;9199;48.832;9.182;2023-08-06T03:32:19;5.50;;;2.33;;
18146;SDS011;9199;48.832;9.182;2023-08-06T03:34:45;4.85;;;2.22;;
18146;SDS011;9199;48.832;9.182;2023-08-06T03:37:13;5.23;;;2.20;;
18146;SDS011;9199;48.832;9.182;2023-08-06T03:39:40;5.63;;;2.30;;
18146;SDS011;9199;48.832;9.182;2023-08-06T03:42:07;5.03;;;2.10;;
18146;SDS011;9199;48.832;9.182;2023-08-06T03:44:33;6.82;;;2.25;;
18146;SDS011;9199;48.832;9.182;2023-08-06T03:47:00;5.35;;;2.47;;
18146;SDS011;9199;48.832;9.182;2023-08-06T03:49:27;5.40;;;2.20;;
18146;SDS011;9199;48.832;9.182;2023-08-06T03:51:54;5.32;;;2.53;;
18146;SDS011;9199;48.832;9.182;2023-08-06T03:54:22;5.47;;;2.60;;
18146;SDS011;9199;48.832;9.182;2023-08-06T03:56:48;6.40;;;2.80;;
18146;SDS011;9199;48.832;9.182;2023-08-06T03:59:15;4.57;;;2.70;;
18146;SDS011;9199;48.832;9.182;2023-08-06T04:01:42;5.87;;;2.50;;
18146;SDS011;9199;48.832;9.182;2023-08-06T04:04:08;5.45;;;2.95;;
18146;SDS011;9199;48.832;9.182;2023-08-06T04:06:35;6.65;;;2.58;;
18146;SDS011;9199;48.832;9.182;2023-08-06T04:09:02;4.97;;;2.63;;
18146;SDS011;9199;48.832;9.182;2023-08-06T04:11:30;5.80;;;2.65;;
18146;SDS011;9199;48.832;9.182;2023-08-06T04:13:56;5.27;;;2.50;;
18146;SDS011;9199;48.832;9.182;2023-08-06T04:16:23;5.32;;;2.65;;
18146;SDS011;9199;48.832;9.182;2023-08-06T04:18:51;5.72;;;2.53;;
18146;SDS011;9199;48.832;9.182;2023-08-06T04:21:18;4.90;;;2.67;;
18146;SDS011;9199;48.832;9.182;2023-08-06T04:23:45;5.22;;;2.50;;
18146;SDS011;9199;48.832;9.182;2023-08-06T04:26:12;4.93;;;2.57;;
18146;SDS011;9199;48.832;9.182;2023-08-06T04:28:40;7.63;;;2.90;;
18146;SDS011;9199;48.832;9.182;2023-08-06T04:31:06;7.00;;;3.17;;
18146;SDS011;9199;48.832;9.182;2023-08-06T04:33:33;7.20;;;3.25;;
18146;SDS011;9199;48.832;9.182;2023-08-06T04:36:00;9.85;;;3.20;;
18146;SDS011;9199;48.832;9.182;2023-08-06T04:38:27;8.20;;;3.60;;
18146;SDS011;9199;48.832;9.182;2023-08-06T04:40:53;6.60;;;3.30;;
18146;SDS011;9199;48.832;9.182;2023-08-06T04:43:20;5.82;;;3.00;;
18146;SDS011;9199;48.832;9.182;2023-08-06T04:45:48;6.28;;;2.90;;
18146;SDS011;9199;48.832;9.182;2023-08-06T04:48:15;7.47;;;2.70;;
18146;SDS011;9199;48.832;9.182;2023-08-06T04:50:43;7.70;;;3.00;;
18146;SDS011;9199;48.832;9.182;2023-08-06T04:53:10;5.90;;;2.97;;
18146;SDS011;9199;48.832;9.182;2023-08-06T04:55:37;7.40;;;3.22;;
18146;SDS011;9199;48.832;9.182;2023-08-06T04:58:04;6.88;;;2.85;;
18146;SDS011;9199;48.832;9.182;2023-08-06T05:00:31;6.63;;;2.50;;
18146;SDS011;9199;48.832;9.182;2023-08-06T05:03:00;9.57;;;2.97;;
18146;SDS011;9199;48.832;9.182;2023-08-06T05:05:27;10.50;;;3.22;;
18146;SDS011;9199;48.832;9.182;2023-08-06T05:07:54;5.93;;;2.47;;
18146;SDS011;9199;48.832;9.182;2023-08-06T05:10:21;7.50;;;2.50;;
18146;SDS011;9199;48.832;9.182;2023-08-06T05:12:50;5.82;;;2.47;;
18146;SDS011;9199;48.832;9.182;2023-08-06T05:15:17;4.73;;;1.90;;
18146;SDS011;9199;48.832;9.182;2023-08-06T05:17:43;6.38;;;2.72;;
18146;SDS011;9199;48.832;9.182;2023-08-06T05:20:12;6.40;;;2.70;;
18146;SDS011;9199;48.832;9.182;2023-08-06T05:22:39;5.95;;;2.13;;
18146;SDS011;9199;48.832;9.182;2023-08-06T05:25:06;5.70;;;2.83;;
18146;SDS011;9199;48.832;9.182;2023-08-06T05:27:33;4.83;;;2.40;;
18146;SDS011;9199;48.832;9.182;2023-08-06T05:29:59;4.28;;;2.20;;
18146;SDS011;9199;48.832;9.182;2023-08-06T05:32:26;5.07;;;2.20;;
18146;SDS011;9199;48.832;9.182;2023-08-06T05:34:53;5.40;;;2.45;;
18146;SDS011;9199;48.832;9.182;2023-08-06T05:37:21;6.22;;;2.00;;
18146;SDS011;9199;48.832;9.182;2023-08-06T05:39:48;3.03;;;1.70;;
18146;SDS011;9199;48.832;9.182;2023-08-06T05:42:14;6.22;;;1.90;;
18146;SDS011;9199;48.832;9.182;2023-08-06T05:44:41;5.10;;;1.85;;
18146;SDS011;9199;48.832;9.182;2023-08-06T05:47:08;5.90;;;1.60;;
18146;SDS011;9199;48.832;9.182;2023-08-06T05:49:34;6.35;;;1.73;;
18146;SDS011;9199;48.832;9.182;2023-08-06T05:52:01;4.13;;;1.70;;
18146;SDS011;9199;48.832;9.182;2023-08-06T05:54:32;5.68;;;1.50;;
18146;SDS011;9199;48.832;9.182;2023-08-06T05:56:59;3.65;;;1.40;;
18146;SDS011;9199;48.832;9.182;2023-08-06T05:59:25;3.60;;;1.48;;
18146;SDS011;9199;48.832;9.182;2023-08-06T06:01:52;3.40;;;1.30;;
18146;SDS011;9199;48.832;9.182;2023-08-06T06:04:19;3.80;;;1.40;;
18146;SDS011;9199;48.832;9.182;2023-08-06T06:06:46;3.17;;;1.02;;
18146;SDS011;9199;48.832;9.182;2023-08-06T06:09:13;4.22;;;1.30;;
18146;SDS011;9199;48.832;9.182;2023-08-06T06:11:41;3.78;;;1.15;;
18146;SDS011;9199;48.832;9.182;2023-08-06T06:14:08;4.80;;;1.00;;
18146;SDS011;9199;48.832;9.182;2023-08-06T06:16:34;2.70;;;1.00;;
18146;SDS011;9199;48.832;9.182;2023-08-06T06:19:01;4.07;;;0.80;;
18146;SDS011;9199;48.832;9.182;2023-08-06T06:21:28;4.05;;;0.80;;
18146;SDS011;9199;48.832;9.182;2023-08-06T06:23:54;2.78;;;0.93;;
18146;SDS011;9199;48.832;9.182;2023-08-06T06:26:21;3.40;;;0.70;;
18146;SDS011;9199;48.832;9.182;2023-08-06T06:28:49;3.30;;;0.93;;
18146;SDS011;9199;48.832;9.182;2023-08-06T06:31:16;2.92;;;0.70;;
18146;SDS011;9199;48.832;9.182;2023-08-06T06:33:43;2.60;;;0.60;;
18146;SDS011;9199;48.832;9.182;2023-08-06T06:36:10;2.67;;;0.80;;
18146;SDS011;9199;48.832;9.182;2023-08-06T06:38:36;1.63;;;0.70;;
18146;SDS011;9199;48.832;9.182;2023-08-06T06:41:03;2.37;;;0.80;;
18146;SDS011;9199;48.832;9.182;2023-08-06T06:43:30;3.38;;;0.80;;
18146;SDS011;9199;48.832;9.182;2023-08-06T06:45:58;3.38;;;0.70;;
18146;SDS011;9199;48.832;9.182;2023-08-06T06:48:26;2.97;;;0.70;;
18146;SDS011;9199;48.832;9.182;2023-08-06T06:50:54;2.78;;;0.80;;
18146;SDS011;9199;48.832;9.182;2023-08-06T06:53:21;3.50;;;0.77;;
18146;SDS011;9199;48.832;9.182;2023-08-06T06:55:52;2.28;;;0.60;;
18146;SDS011;9199;48.832;9.182;2023-08-06T06:58:18;1.83;;;0.73;;
18146;SDS011;9199;48.832;9.182;2023-08-06T07:00:45;5.38;;;0.80;;
18146;SDS011;9199;48.832;9.182;2023-08-06T07:03:14;4.93;;;0.80;;
18146;SDS011;9199;48.832;9.182;2023-08-06T07:05:41;2.93;;;0.90;;
18146;SDS011;9199;48.832;9.182;2023-08-06T07:08:09;2.03;;;0.60;;
18146;SDS011;9199;48.832;9.182;2023-08-06T07:10:35;2.13;;;0.70;;
18146;SDS011;9199;48.832;9.182;2023-08-06T07:13:02;1.90;;;0.70;;
18146;SDS011;9199;48.832;9.182;2023-08-06T07:15:29;2.70;;;0.70;;
18146;SDS011;9199;48.832;9.182;2023-08-06T07:17:55;2.83;;;1.00;;
18146;SDS011;9199;48.832;9.182;2023-08-06T07:20:23;2.72;;;0.80;;
18146;SDS011;9199;48.832;9.182;2023-08-06T07:22:50;2.05;;;0.60;;
18146;SDS011;9199;48.832;9.182;2023-08-06T07:25:17;3.40;;;0.77;;
18146;SDS011;9199;48.832;9.182;2023-08-06T07:27:44;2.55;;;0.60;;
18146;SDS011;9199;48.832;9.182;2023-08-06T07:30:11;3.10;;;0.70;;
18146;SDS011;9199;48.832;9.182;2023-08-06T07:32:37;2.90;;;0.60;;
18146;SDS011;9199;48.832;9.182;2023-08-06T07:35:04;1.60;;;0.50;;
18146;SDS011;9199;48.832;9.182;2023-08-06T07:37:34;2.42;;;0.70;;
18146;SDS011;9199;48.832;9.182;2023-08-06T07:40:01;2.47;;;0.70;;
18146;SDS011;9199;48.832;9.182;2023-08-06T07:42:28;2.10;;;0.60;;
18146;SDS011;9199;48.832;9.182;2023-08-06T07:44:55;2.97;;;0.63;;
18146;SDS011;9199;48.832;9.182;2023-08-06T07:47:24;2.08;;;0.95;;
18146;SDS011;9199;48.832;9.182;2023-08-06T07:49:51;1.80;;;0.60;;
18146;SDS011;9199;48.832;9.182;2023-08-06T07:52:18;1.90;;;0.68;;
18146;SDS011;9199;48.832;9.182;2023-08-06T07:54:46;2.60;;;0.60;;
18146;SDS011;9199;48.832;9.182;2023-08-06T07:57:12;1.27;;;0.50;;
18146;SDS011;9199;48.832;9.182;2023-08-06T07:59:40;2.50;;;0.70;;
18146;SDS011;9199;48.832;9.182;2023-08-06T08:02:07;4.28;;;0.68;;
18146;SDS011;9199;48.832;9.182;2023-08-06T08:04:33;1.30;;;0.50;;
18146;SDS011;9199;48.832;9.182;2023-08-06T08:07:00;2.10;;;0.70;;
18146;SDS011;9199;48.832;9.182;2023-08-06T08:09:27;1.10;;;0.40;;
18146;SDS011;9199;48.832;9.182;2023-08-06T08:11:55;1.40;;;0.52;;
18146;SDS011;9199;48.832;9.182;2023-08-06T08:14:22;0.70;;;0.40;;
18146;SDS011;9199;48.832;9.182;2023-08-06T08:16:49;1.20;;;0.50;;
18146;SDS011;9199;48.832;9.182;2023-08-06T08:19:16;1.50;;;0.40;;
18146;SDS011;9199;48.832;9.182;2023-08-06T08:21:42;1.25;;;0.40;;
18146;SDS011;9199;48.832;9.182;2023-08-06T08:24:09;2.47;;;0.70;;
18146;SDS011;9199;48.832;9.182;2023-08-06T08:26:36;2.78;;;0.77;;
18146;SDS011;9199;48.832;9.182;2023-08-06T08:29:04;1.45;;;0.55;;
18146;SDS011;9199;48.832;9.182;2023-08-06T08:31:31;1.63;;;0.40;;
18146;SDS011;9199;48.832;9.182;2023-08-06T08:34:04;0.80;;;0.40;;
18146;SDS011;9199;48.832;9.182;2023-08-06T08:36:30;1.20;;;0.45;;
18146;SDS011;9199;48.832;9.182;2023-08-06T08:38:57;2.00;;;0.60;;
18146;SDS011;9199;48.832;9.182;2023-08-06T08:41:24;1.10;;;0.50;;
18146;SDS011;9199;48.832;9.182;2023-08-06T08:43:51;0.83;;;0.50;;
18146;SDS011;9199;48.832;9.182;2023-08-06T08:46:19;0.93;;;0.40;;
18146;SDS011;9199;48.832;9.182;2023-08-06T08:48:46;1.05;;;0.40;;
18146;SDS011;9199;48.832;9.182;2023-08-06T08:51:13;5.97;;;1.98;;
18146;SDS011;9199;48.832;9.182;2023-08-06T08:53:42;1.60;;;0.40;;
18146;SDS011;9199;48.832;9.182;2023-08-06T08:56:11;0.93;;;0.40;;
18146;SDS011;9199;48.832;9.182;2023-08-06T08:58:39;0.70;;;0.40;;
18146;SDS011;9199;48.832;9.182;2023-08-06T09:01:06;0.60;;;0.40;;
18146;SDS011;9199;48.832;9.182;2023-08-06T09:03:36;0.60;;;0.30;;
18146;SDS011;9199;48.832;9.182;2023-08-06T09:06:03;1.58;;;0.30;;
18146;SDS011;9199;48.832;9.182;2023-08-06T09:08:31;1.13;;;0.30;;
18146;SDS011;9199;48.832;9.182;2023-08-06T09:11:05;1.15;;;0.30;;
18146;SDS011;9199;48.832;9.182;2023-08-06T09:13:35;1.27;;;0.30;;
18146;SDS011;9199;48.832;9.182;2023-08-06T09:16:03;0.77;;;0.40;;
18146;SDS011;9199;48.832;9.182;2023-08-06T09:18:30;0.70;;;0.38;;
18146;SDS011;9199;48.832;9.182;2023-08-06T09:20:58;1.17;;;0.30;;
18146;SDS011;9199;48.832;9.182;2023-08-06T09:23:27;0.93;;;0.30;;
18146;SDS011;9199;48.832;9.182;2023-08-06T09:25:55;1.52;;;0.40;;
18146;SDS011;9199;48.832;9.182;2023-08-06T09:28:22;1.30;;;0.40;;
18146;SDS011;9199;48.832;9.182;2023-08-06T09:30:49;0.65;;;0.40;;
18146;SDS011;9199;48.832;9.182;2023-08-06T09:33:20;0.80;;;0.40;;
18146;SDS011;9199;48.832;9.182;2023-08-06T09:35:48;0.70;;;0.38;;
18146;SDS011;9199;48.832;9.182;2023-08-06T09:38:16;1.40;;;0.40;;
18146;SDS011;9199;48.832;9.182;2023-08-06T09:40:43;0.80;;;0.30;;
18146;SDS011;9199;48.832;9.182;2023-08-06T09:43:10;0.45;;;0.30;;
18146;SDS011;9199;48.832;9.182;2023-08-06T09:45:38;1.03;;;0.40;;
18146;SDS011;9199;48.832;9.182;2023-08-06T09:48:05;0.98;;;0.40;;
18146;SDS011;9199;48.832;9.182;2023-08-06T09:50:34;0.75;;;0.30;;
18146;SDS011;9199;48.832;9.182;2023-08-06T09:53:03;0.60;;;0.35;;
18146;SDS011;9199;48.832;9.182;2023-08-06T09:55:32;1.10;;;0.30;;
18146;SDS011;9199;48.832;9.182;2023-08-06T09:58:00;0.77;;;0.40;;
18146;SDS011;9199;48.832;9.182;2023-08-06T10:00:27;2.08;;;0.50;;
18146;SDS011;9199;48.832;9.182;2023-08-06T10:02:59;2.03;;;0.40;;
18146;SDS011;9199;48.832;9.182;2023-08-06T10:05:27;0.57;;;0.40;;
18146;SDS011;9199;48.832;9.182;2023-08-06T10:07:54;0.85;;;0.40;;
18146;SDS011;9199;48.832;9.182;2023-08-06T10:10:23;0.80;;;0.43;;
18146;SDS011;9199;48.832;9.182;2023-08-06T10:12:53;1.00;;;0.50;;
18146;SDS011;9199;48.832;9.182;2023-08-06T10:15:24;1.08;;;0.40;;
18146;SDS011;9199;48.832;9.182;2023-08-06T10:17:54;1.33;;;0.40;;
18146;SDS011;9199;48.832;9.182;2023-08-06T10:20:23;0.73;;;0.40;;
18146;SDS011;9199;48.832;9.182;2023-08-06T10:23:00;0.90;;;0.40;;
18146;SDS011;9199;48.832;9.182;2023-08-06T10:25:30;0.80;;;0.30;;
18146;SDS011;9199;48.832;9.182;2023-08-06T10:28:00;0.80;;;0.40;;
18146;SDS011;9199;48.832;9.182;2023-08-06T10:30:28;1.48;;;0.50;;
18146;SDS011;9199;48.832;9.182;2023-08-06T10:32:55;0.75;;;0.40;;
18146;SDS011;9199;48.832;9.182;2023-08-06T10:35:31;1.13;;;0.40;;
18146;SDS011;9199;48.832;9.182;2023-08-06T10:38:03;0.95;;;0.40;;
18146;SDS011;9199;48.832;9.182;2023-08-06T10:40:31;0.60;;;0.30;;
18146;SDS011;9199;48.832;9.182;2023-08-06T10:42:59;0.88;;;0.40;;
18146;SDS011;9199;48.832;9.182;2023-08-06T10:45:26;1.00;;;0.40;;
18146;SDS011;9199;48.832;9.182;2023-08-06T10:47:55;1.43;;;0.30;;
18146;SDS011;9199;48.832;9.182;2023-08-06T10:50:22;0.70;;;0.40;;
18146;SDS011;9199;48.832;9.182;2023-08-06T10:52:50;1.00;;;0.40;;
18146;SDS011;9199;48.832;9.182;2023-08-06T10:55:27;1.10;;;0.40;;
18146;SDS011;9199;48.832;9.182;2023-08-06T10:57:55;1.90;;;0.50;;
18146;SDS011;9199;48.832;9.182;2023-08-06T11:00:23;1.40;;;0.40;;
18146;SDS011;9199;48.832;9.182;2023-08-06T11:02:51;1.00;;;0.40;;
18146;SDS011;9199;48.832;9.182;2023-08-06T11:05:18;0.90;;;0.40;;
18146;SDS011;9199;48.832;9.182;2023-08-06T11:07:45;1.15;;;0.50;;
18146;SDS011;9199;48.832;9.182;2023-08-06T11:10:13;1.60;;;0.50;;
18146;SDS011;9199;48.832;9.182;2023-08-06T11:12:40;0.80;;;0.40;;
18146;SDS011;9199;48.832;9.182;2023-08-06T11:15:07;2.42;;;0.57;;
18146;SDS011;9199;48.832;9.182;2023-08-06T11:17:36;2.08;;;0.70;;
18146;SDS011;9199;48.832;9.182;2023-08-06T11:20:05;1.33;;;0.60;;
18146;SDS011;9199;48.832;9.182;2023-08-06T11:22:32;2.40;;;0.60;;
18146;SDS011;9199;48.832;9.182;2023-08-06T11:24:59;1.57;;;0.57;;
18146;SDS011;9199;48.832;9.182;2023-08-06T11:27:27;1.40;;;0.60;;
18146;SDS011;9199;48.832;9.182;2023-08-06T11:29:54;1.50;;;0.68;;
18146;SDS011;9199;48.832;9.182;2023-08-06T11:32:21;3.03;;;0.70;;
18146;SDS011;9199;48.832;9.182;2023-08-06T11:34:49;1.23;;;0.60;;
18146;SDS011;9199;48.832;9.182;2023-08-06T11:37:16;2.13;;;0.70;;
18146;SDS011;9199;48.832;9.182;2023-08-06T11:39:47;1.90;;;0.75;;
18146;SDS011;9199;48.832;9.182;2023-08-06T11:42:14;2.95;;;0.70;;
18146;SDS011;9199;48.832;9.182;2023-08-06T11:44:41;2.95;;;0.95;;
18146;SDS011;9199;48.832;9.182;2023-08-06T11:47:11;2.05;;;0.70;;
18146;SDS011;9199;48.832;9.182;2023-08-06T11:49:40;3.40;;;1.00;;
18146;SDS011;9199;48.832;9.182;2023-08-06T11:52:17;2.17;;;0.90;;
18146;SDS011;9199;48.832;9.182;2023-08-06T11:54:46;2.40;;;1.08;;
18146;SDS011;9199;48.832;9.182;2023-08-06T11:57:13;2.55;;;1.10;;
18146;SDS011;9199;48.832;9.182;2023-08-06T11:59:41;2.65;;;1.10;;
18146;SDS011;9199;48.832;9.182;2023-08-06T12:02:08;2.17;;;0.80;;
18146;SDS011;9199;48.832;9.182;2023-08-06T12:07:28;2.28;;;1.00;;
18146;SDS011;9199;48.832;9.182;2023-08-06T12:09:55;4.40;;;1.20;;
18146;SDS011;9199;48.832;9.182;2023-08-06T12:12:22;3.25;;;1.30;;
18146;SDS011;9199;48.832;9.182;2023-08-06T12:14:49;3.23;;;1.40;;
18146;SDS011;9199;48.832;9.182;2023-08-06T12:17:16;4.10;;;1.35;;
18146;SDS011;9199;48.832;9.182;2023-08-06T12:19:44;4.90;;;1.50;;
18146;SDS011;9199;48.832;9.182;2023-08-06T12:22:10;3.58;;;1.45;;
18146;SDS011;9199;48.832;9.182;2023-08-06T12:24:39;3.05;;;1.20;;
18146;SDS011;9199;48.832;9.182;2023-08-06T12:27:07;3.67;;;1.43;;
18146;SDS011;9199;48.832;9.182;2023-08-06T12:29:33;5.35;;;1.70;;
18146;SDS011;9199;48.832;9.182;2023-08-06T12:32:00;3.25;;;1.40;;
18146;SDS011;9199;48.832;9.182;2023-08-06T12:34:27;4.50;;;1.30;;
18146;SDS011;9199;48.832;9.182;2023-08-06T12:36:54;4.10;;;1.27;;
18146;SDS011;9199;48.832;9.182;2023-08-06T12:39:20;3.20;;;1.30;;
18146;SDS011;9199;48.832;9.182;2023-08-06T12:41:48;3.67;;;1.30;;
18146;SDS011;9199;48.832;9.182;2023-08-06T12:44:15;3.10;;;1.30;;
18146;SDS011;9199;48.832;9.182;2023-08-06T12:46:42;2.90;;;1.30;;
18146;SDS011;9199;48.832;9.182;2023-08-06T12:49:09;3.85;;;1.10;;
18146;SDS011;9199;48.832;9.182;2023-08-06T12:51:36;2.77;;;1.07;;
18146;SDS011;9199;48.832;9.182;2023-08-06T12:54:03;2.65;;;1.00;;
18146;SDS011;9199;48.832;9.182;2023-08-06T12:56:30;3.38;;;1.30;;
18146;SDS011;9199;48.832;9.182;2023-08-06T12:58:58;2.55;;;0.82;;
18146;SDS011;9199;48.832;9.182;2023-08-06T13:01:25;2.22;;;1.00;;
18146;SDS011;9199;48.832;9.182;2023-08-06T13:03:52;2.00;;;0.90;;
18146;SDS011;9199;48.832;9.182;2023-08-06T13:06:18;2.25;;;0.82;;
18146;SDS011;9199;48.832;9.182;2023-08-06T13:08:45;2.40;;;0.82;;
18146;SDS011;9199;48.832;9.182;2023-08-06T13:11:12;3.22;;;1.00;;
18146;SDS011;9199;48.832;9.182;2023-08-06T13:13:39;3.53;;;1.00;;
18146;SDS011;9199;48.832;9.182;2023-08-06T13:16:07;3.37;;;0.97;;
18146;SDS011;9199;48.832;9.182;2023-08-06T13:18:34;2.50;;;1.02;;
18146;SDS011;9199;48.832;9.182;2023-08-06T13:21:00;2.58;;;1.00;;
18146;SDS011;9199;48.832;9.182;2023-08-06T13:23:27;2.53;;;0.88;;
18146;SDS011;9199;48.832;9.182;2023-08-06T13:25:54;3.10;;;0.90;;
18146;SDS011;9199;48.832;9.182;2023-08-06T13:28:20;2.83;;;0.90;;
18146;SDS011;9199;48.832;9.182;2023-08-06T13:30:47;2.00;;;0.80;;
18146;SDS011;9199;48.832;9.182;2023-08-06T13:33:15;2.17;;;0.80;;
18146;SDS011;9199;48.832;9.182;2023-08-06T13:35:42;2.13;;;0.60;;
18146;SDS011;9199;48.832;9.182;2023-08-06T13:38:09;1.70;;;0.70;;
18146;SDS011;9199;48.832;9.182;2023-08-06T13:40:35;2.17;;;0.73;;
18146;SDS011;9199;48.832;9.182;2023-08-06T13:43:02;1.98;;;0.80;;
18146;SDS011;9199;48.832;9.182;2023-08-06T13:45:29;1.58;;;0.57;;
18146;SDS011;9199;48.832;9.182;2023-08-06T13:47:56;1.67;;;0.70;;
18146;SDS011;9199;48.832;9.182;2023-08-06T13:50:25;2.03;;;0.70;;
18146;SDS011;9199;48.832;9.182;2023-08-06T13:52:52;3.70;;;0.60;;
18146;SDS011;9199;48.832;9.182;2023-08-06T13:55:20;1.90;;;0.80;;
18146;SDS011;9199;48.832;9.182;2023-08-06T13:57:47;1.25;;;0.60;;
18146;SDS011;9199;48.832;9.182;2023-08-06T14:00:14;2.13;;;0.90;;
18146;SDS011;9199;48.832;9.182;2023-08-06T14:02:40;1.35;;;0.60;;
18146;SDS011;9199;48.832;9.182;2023-08-06T14:05:08;2.47;;;0.60;;
18146;SDS011;9199;48.832;9.182;2023-08-06T14:07:37;1.27;;;0.70;;
18146;SDS011;9199;48.832;9.182;2023-08-06T14:10:04;1.33;;;0.60;;
18146;SDS011;9199;48.832;9.182;2023-08-06T14:12:32;3.05;;;0.80;;
18146;SDS011;9199;48.832;9.182;2023-08-06T14:14:59;2.97;;;0.70;;
18146;SDS011;9199;48.832;9.182;2023-08-06T14:17:26;2.37;;;0.80;;
18146;SDS011;9199;48.832;9.182;2023-08-06T14:19:53;1.92;;;0.70;;
18146;SDS011;9199;48.832;9.182;2023-08-06T14:22:20;1.63;;;0.73;;
18146;SDS011;9199;48.832;9.182;2023-08-06T14:24:49;1.73;;;0.75;;
18146;SDS011;9199;48.832;9.182;2023-08-06T14:27:15;2.85;;;0.80;;
18146;SDS011;9199;48.832;9.182;2023-08-06T14:29:42;1.77;;;0.70;;
18146;SDS011;9199;48.832;9.182;2023-08-06T14:32:08;2.03;;;0.80;;
18146;SDS011;9199;48.832;9.182;2023-08-06T14:34:35;2.47;;;0.68;;
18146;SDS011;9199;48.832;9.182;2023-08-06T14:37:02;1.92;;;0.70;;
18146;SDS011;9199;48.832;9.182;2023-08-06T14:39:29;2.17;;;0.80;;
18146;SDS011;9199;48.832;9.182;2023-08-06T14:41:57;2.67;;;0.77;;
18146;SDS011;9199;48.832;9.182;2023-08-06T14:44:24;1.95;;;0.70;;
18146;SDS011;9199;48.832;9.182;2023-08-06T14:46:50;1.42;;;0.60;;
18146;SDS011;9199;48.832;9.182;2023-08-06T14:49:17;1.75;;;0.70;;
18146;SDS011;9199;48.832;9.182;2023-08-06T14:51:44;3.08;;;0.80;;
18146;SDS011;9199;48.832;9.182;2023-08-06T14:54:11;2.50;;;0.67;;
18146;SDS011;9199;48.832;9.182;2023-08-06T14:56:38;2.25;;;0.63;;
18146;SDS011;9199;48.832;9.182;2023-08-06T14:59:06;2.55;;;0.70;;
18146;SDS011;9199;48.832;9.182;2023-08-06T15:01:32;2.53;;;0.77;;
18146;SDS011;9199;48.832;9.182;2023-08-06T15:03:59;1.83;;;0.80;;